Time;durP1;ratioP1;P1;durP2;ratioP2;P2;SDS_P1;SDS_P2;PMS_P1;PMS_P2;Temp;Humidity;BMP_temperature;BMP_pressure;BME280_temperature;BME280_humidity;BME280_pressure;Samples;Min_cycle;Max_cycle;Signal;HPM_P1;HPM_P2
2022/01/29 00:01:27;;;;;;;43.78;26.45;;;;;;;12.58;60.41;102739.69;4992789;28;20068;-75
2022/01/29 00:03:53;;;;;;;36.95;23.52;;;;;;;12.20;61.48;102733.72;4991160;28;20185;-75
2022/01/29 00:06:18;;;;;;;46.15;22.38;;;;;;;12.19;61.45;102729.31;4992703;28;20402;-74
2022/01/29 00:08:44;;;;;;;46.75;21.67;;;;;;;11.73;63.46;102735.16;4992982;28;20037;-75
2022/01/29 00:11:13;;;;;;;43.67;27.65;;;;;;;12.36;61.59;102721.84;4992432;28;20039;-76
2022/01/29 00:13:38;;;;;;;46.75;22.33;;;;;;;12.01;62.29;102731.59;4992661;28;20466;-75
2022/01/29 00:16:04;;;;;;;39.53;24.80;;;;;;;12.07;62.34;102724.59;4992400;28;20124;-75
2022/01/29 00:18:29;;;;;;;43.53;24.02;;;;;;;11.65;64.28;102703.75;4975201;28;20050;-74
2022/01/29 00:20:55;;;;;;;34.30;21.15;;;;;;;11.60;64.25;102703.47;4992099;28;20474;-75
2022/01/29 00:23:21;;;;;;;41.33;22.65;;;;;;;11.77;64.54;102683.44;4992645;28;20105;-74
2022/01/29 00:25:46;;;;;;;43.00;23.63;;;;;;;11.72;64.75;102695.78;4992704;28;20112;-75
2022/01/29 00:28:14;;;;;;;29.73;18.98;;;;;;;11.50;65.34;102703.75;4993961;28;20122;-75
2022/01/29 00:30:42;;;;;;;35.78;21.98;;;;;;;11.68;64.53;102699.84;5011003;28;20092;-74
2022/01/29 00:33:09;;;;;;;45.30;24.35;;;;;;;11.92;64.07;102708.47;5012307;28;20129;-74
2022/01/29 00:35:35;;;;;;;38.05;20.95;;;;;;;11.92;63.64;102691.47;4994288;28;20536;-74
2022/01/29 00:38:01;;;;;;;40.67;25.27;;;;;;;11.76;64.47;102689.84;4992931;28;20035;-75
2022/01/29 00:40:27;;;;;;;38.47;24.83;;;;;;;11.55;66.17;102691.59;5007049;28;20486;-75
2022/01/29 00:42:53;;;;;;;32.40;18.90;;;;;;;11.31;67.05;102676.53;5011750;28;20030;-74
2022/01/29 00:45:18;;;;;;;39.60;22.90;;;;;;;11.77;65.01;102675.34;5011693;28;20209;-74
2022/01/29 00:47:44;;;;;;;40.92;25.45;;;;;;;11.54;66.34;102679.16;4994707;28;20105;-72
2022/01/29 00:50:10;;;;;;;41.55;24.00;;;;;;;11.31;67.83;102676.53;4992179;28;20062;-74
2022/01/29 00:52:38;;;;;;;49.40;28.88;;;;;;;11.58;67.32;102661.59;4992252;28;20061;-74
2022/01/29 00:55:05;;;;;;;48.33;25.85;;;;;;;11.27;67.94;102649.16;4991982;28;20046;-74
2022/01/29 00:57:33;;;;;;;47.72;30.02;;;;;;;11.54;68.40;102650.34;4992180;28;20121;-75
2022/01/29 00:59:58;;;;;;;56.92;30.38;;;;;;;11.56;67.82;102642.09;4992575;28;20026;-73
2022/01/29 01:02:24;;;;;;;51.15;28.05;;;;;;;11.50;67.86;102647.22;4992470;28;20117;-76
2022/01/29 01:04:49;;;;;;;52.17;29.88;;;;;;;11.31;68.33;102646.94;4992546;28;20080;-75
2022/01/29 01:07:15;;;;;;;48.55;29.23;;;;;;;11.25;68.89;102637.75;4992304;28;20046;-74
2022/01/29 01:09:40;;;;;;;47.85;30.35;;;;;;;11.52;68.21;102635.44;4991880;28;20628;-75
2022/01/29 01:12:07;;;;;;;50.08;29.52;;;;;;;11.36;69.07;102639.97;4991930;28;20030;-75
2022/01/29 01:14:32;;;;;;;47.35;24.42;;;;;;;11.83;67.32;102638.75;4992172;28;20045;-74
2022/01/29 01:16:58;;;;;;;53.47;29.42;;;;;;;11.64;68.24;102628.50;4991519;28;20042;-75
2022/01/29 01:19:25;;;;;;;46.47;28.10;;;;;;;11.35;68.90;102632.94;4991856;28;20042;-74
2022/01/29 01:21:53;;;;;;;57.25;27.88;;;;;;;11.14;69.70;102626.63;4991715;28;20032;-75
2022/01/29 01:24:18;;;;;;;45.38;27.08;;;;;;;11.07;70.32;102602.31;4991716;28;20623;-75
2022/01/29 01:26:44;;;;;;;59.55;31.83;;;;;;;11.30;69.65;102596.84;4992235;28;20041;-75
2022/01/29 01:29:10;;;;;;;51.85;32.53;;;;;;;11.48;69.03;102595.41;5003191;28;20142;-76
2022/01/29 01:31:35;;;;;;;53.33;30.92;;;;;;;11.43;69.51;102588.91;5011236;28;20064;-75
2022/01/29 01:34:03;;;;;;;53.70;27.95;;;;;;;11.51;68.73;102580.75;5008946;28;20567;-75
2022/01/29 01:36:28;;;;;;;52.95;29.60;;;;;;;11.07;70.22;102588.00;5006762;28;20489;-74
2022/01/29 01:39:01;;;;;;;52.78;30.25;;;;;;;11.40;69.11;102587.44;5015436;28;20111;-74
2022/01/29 01:41:28;;;;;;;42.40;24.15;;;;;;;11.07;70.85;102593.38;5015243;28;20080;-75
2022/01/29 01:44:04;;;;;;;54.10;33.78;;;;;;;11.34;69.68;102588.19;4999142;28;20590;-75
2022/01/29 01:46:29;;;;;;;43.83;26.20;;;;;;;11.15;70.18;102586.06;4994737;28;20042;-75
2022/01/29 01:48:56;;;;;;;40.67;24.55;;;;;;;11.37;69.18;102585.13;4995110;28;20044;-74
2022/01/29 01:51:22;;;;;;;51.17;29.33;;;;;;;12.04;67.28;102576.78;4994767;28;20097;-75
2022/01/29 01:53:48;;;;;;;47.80;30.65;;;;;;;11.65;68.33;102571.81;4995288;28;20491;-75
2022/01/29 01:56:13;;;;;;;46.15;28.38;;;;;;;11.33;69.29;102564.16;4960688;28;20034;-75
2022/01/29 01:58:39;;;;;;;50.90;28.30;;;;;;;11.44;69.77;102555.59;4995017;28;20606;-76
2022/01/29 02:01:05;;;;;;;52.33;28.88;;;;;;;11.39;69.56;102555.31;4994908;28;20058;-74
2022/01/29 02:03:30;;;;;;;54.20;29.20;;;;;;;11.61;69.45;102556.19;4995340;28;20041;-75
2022/01/29 02:05:56;;;;;;;41.05;23.70;;;;;;;11.04;71.30;102578.47;4995786;28;20027;-75
2022/01/29 02:08:22;;;;;;;51.03;28.98;;;;;;;11.66;70.03;102553.78;4994849;28;20038;-75
2022/01/29 02:10:49;;;;;;;57.13;27.35;;;;;;;11.27;70.59;102565.75;4994383;28;20085;-77
2022/01/29 02:13:14;;;;;;;47.83;27.65;;;;;;;11.46;69.84;102546.31;4995328;28;20541;-74
2022/01/29 02:15:40;;;;;;;40.50;23.58;;;;;;;11.23;71.09;102537.53;4994636;28;20038;-75
2022/01/29 02:18:12;;;;;;;45.80;27.90;;;;;;;11.55;69.52;102544.34;4994659;28;20080;-74
2022/01/29 02:20:39;;;;;;;47.35;29.60;;;;;;;12.07;68.50;102539.50;4995029;28;20095;-75
2022/01/29 02:23:04;;;;;;;47.28;26.60;;;;;;;11.65;69.56;102539.50;4994407;28;20039;-74
2022/01/29 02:25:44;;;;;;;42.13;25.17;;;;;;;11.17;71.21;102529.38;4993032;28;20043;-75
2022/01/29 02:28:16;;;;;;;34.83;20.48;;;;;;;11.51;70.32;102518.81;4995528;28;20096;-75
2022/01/29 02:30:46;;;;;;;42.67;25.15;;;;;;;11.36;70.86;102529.63;4976948;28;20504;-76
2022/01/29 02:33:14;;;;;;;41.60;24.65;;;;;;;11.25;70.62;102518.50;5009578;28;20048;-75
2022/01/29 02:35:48;;;;;;;38.03;23.38;;;;;;;11.61;70.02;102532.81;4995201;28;20486;-74
2022/01/29 02:38:15;;;;;;;41.28;23.73;;;;;;;11.57;69.58;102525.28;4994068;28;20125;-75
2022/01/29 02:40:49;;;;;;;44.65;25.33;;;;;;;11.54;70.10;102498.78;4993746;28;20142;-74
2022/01/29 02:43:18;;;;;;;39.15;23.67;;;;;;;11.64;69.45;102504.66;4993673;28;20062;-75
2022/01/29 02:45:45;;;;;;;43.00;26.15;;;;;;;11.60;69.93;102496.13;4993425;28;20042;-74
2022/01/29 02:48:11;;;;;;;44.90;25.00;;;;;;;11.72;69.07;102499.19;4994398;28;20030;-76
2022/01/29 02:50:38;;;;;;;41.10;25.73;;;;;;;11.99;68.18;102490.34;4994262;28;20057;-74
2022/01/29 02:53:04;;;;;;;43.72;24.85;;;;;;;11.91;68.79;102490.47;4993826;28;20046;-76
2022/01/29 02:55:29;;;;;;;44.53;23.85;;;;;;;11.42;70.59;102501.09;4993700;28;20046;-76
2022/01/29 02:57:55;;;;;;;36.67;25.02;;;;;;;12.24;67.81;102488.88;4992188;28;20118;-74
2022/01/29 03:00:21;;;;;;;36.97;23.58;;;;;;;11.80;69.47;102477.50;4993710;28;20121;-75
2022/01/29 03:02:46;;;;;;;38.17;22.20;;;;;;;11.70;69.59;102480.53;4994044;28;20169;-74
2022/01/29 03:05:12;;;;;;;28.55;17.88;;;;;;;11.38;71.29;102470.19;4993500;28;20038;-74
2022/01/29 03:07:38;;;;;;;38.33;21.92;;;;;;;11.94;69.72;102468.50;4976210;28;20633;-74
2022/01/29 03:10:04;;;;;;;39.08;22.50;;;;;;;12.15;68.68;102463.91;4991620;28;20046;-75
2022/01/29 03:12:30;;;;;;;37.90;21.95;;;;;;;11.81;70.33;102457.63;4993375;28;20382;-75
2022/01/29 03:14:55;;;;;;;39.30;25.55;;;;;;;11.88;69.41;102445.88;4993919;28;20041;-73
2022/01/29 03:17:21;;;;;;;45.40;26.27;;;;;;;12.35;68.47;102447.88;4993186;28;20610;-76
2022/01/29 03:19:46;;;;;;;45.63;27.13;;;;;;;12.09;69.00;102447.69;4993288;28;20038;-74
2022/01/29 03:22:12;;;;;;;38.58;21.48;;;;;;;11.84;69.87;102449.16;4993286;28;20115;-73
2022/01/29 03:24:37;;;;;;;44.33;25.52;;;;;;;12.65;67.44;102443.09;4993294;28;20038;-74
2022/01/29 03:27:03;;;;;;;41.47;24.85;;;;;;;12.91;66.22;102452.13;4993180;28;20050;-75
2022/01/29 03:29:28;;;;;;;41.03;22.92;;;;;;;12.07;69.35;102447.06;5009785;28;20061;-74
2022/01/29 03:31:54;;;;;;;41.95;25.90;;;;;;;12.41;68.65;102441.72;5012556;28;20570;-76
2022/01/29 03:34:19;;;;;;;35.97;22.85;;;;;;;12.29;68.97;102441.44;5004378;28;20121;-75
2022/01/29 03:36:45;;;;;;;41.40;23.98;;;;;;;11.96;70.50;102426.06;4992479;28;20081;-76
2022/01/29 03:39:10;;;;;;;46.05;23.63;;;;;;;12.05;70.33;102419.47;4992930;28;20525;-74
2022/01/29 03:41:36;;;;;;;48.88;27.50;;;;;;;12.33;69.32;102431.09;4991648;28;20126;-75
2022/01/29 03:44:05;;;;;;;44.78;25.40;;;;;;;11.99;70.34;102439.97;4992982;28;20030;-75
2022/01/29 03:46:32;;;;;;;42.75;27.80;;;;;;;12.79;68.06;102424.09;4993003;28;20483;-76
2022/01/29 03:48:58;;;;;;;39.17;23.60;;;;;;;12.62;68.25;102424.63;4992966;28;20026;-75
2022/01/29 03:51:23;;;;;;;39.72;25.13;;;;;;;12.28;69.10;102428.97;4993028;28;20036;-75
2022/01/29 03:53:49;;;;;;;48.38;28.55;;;;;;;13.04;67.31;102429.81;4993210;28;20125;-77
2022/01/29 03:56:14;;;;;;;42.95;26.40;;;;;;;12.80;67.19;102423.03;4992681;28;20050;-75
2022/01/29 03:58:39;;;;;;;48.17;28.00;;;;;;;12.73;68.06;102422.19;4992592;28;20177;-75
2022/01/29 04:01:05;;;;;;;42.35;25.30;;;;;;;12.51;69.07;102422.47;4992881;28;20504;-75
2022/01/29 04:03:30;;;;;;;48.45;24.85;;;;;;;11.71;71.43;102417.56;4992601;28;20031;-75
2022/01/29 04:05:56;;;;;;;35.90;23.48;;;;;;;11.98;70.80;102421.31;4993307;28;20085;-74
2022/01/29 04:08:23;;;;;;;47.88;25.05;;;;;;;12.43;69.62;102412.69;4992191;28;20395;-75
2022/01/29 04:10:50;;;;;;;41.13;22.08;;;;;;;12.82;67.70;102403.94;4992472;28;20038;-76
2022/01/29 04:13:21;;;;;;;37.50;21.80;;;;;;;12.46;69.19;102414.16;4992808;28;20502;-75
2022/01/29 04:15:46;;;;;;;43.10;23.13;;;;;;;12.31;70.05;102409.72;4992463;28;20042;-76
2022/01/29 04:18:12;;;;;;;41.75;22.13;;;;;;;12.88;68.05;102395.03;4990678;28;20042;-75
2022/01/29 04:20:38;;;;;;;38.15;24.13;;;;;;;12.59;68.69;102382.69;4992720;28;20426;-75
2022/01/29 04:23:07;;;;;;;35.80;23.08;;;;;;;12.60;68.62;102388.94;4974369;28;20410;-75
2022/01/29 04:25:33;;;;;;;42.13;25.38;;;;;;;12.67;69.81;102389.78;5007400;28;20037;-75
2022/01/29 04:27:59;;;;;;;38.40;21.65;;;;;;;12.71;68.73;102380.25;5007843;28;20114;-76
2022/01/29 04:35:18;;;;;;;32.83;21.23;;;;;;;13.11;67.50;102376.66;4992060;28;20042;-75
2022/01/29 04:37:44;;;;;;;39.95;23.15;;;;;;;12.75;68.52;102384.22;4992048;28;20042;-76
2022/01/29 04:40:10;;;;;;;41.30;20.65;;;;;;;12.96;67.35;102384.06;4992103;28;20504;-76
2022/01/29 04:42:36;;;;;;;35.47;21.60;;;;;;;12.89;67.87;102381.34;4991993;28;20041;-76
2022/01/29 04:45:02;;;;;;;28.73;17.58;;;;;;;12.92;67.40;102375.56;4990184;28;20038;-77
2022/01/29 04:47:28;;;;;;;35.80;20.73;;;;;;;13.16;66.99;102374.19;5004085;28;20034;-74
2022/01/29 04:49:53;;;;;;;36.42;23.15;;;;;;;13.96;64.47;102379.41;5011542;28;20548;-75
2022/01/29 04:52:19;;;;;;;32.88;18.48;;;;;;;12.42;69.36;102377.84;5011381;28;20030;-74
2022/01/29 04:54:44;;;;;;;21.15;14.30;;;;;;;12.80;68.49;102374.47;5011328;28;20117;-76
2022/01/29 04:57:09;;;;;;;36.00;18.98;;;;;;;12.93;67.75;102369.13;5010191;28;20493;-76
2022/01/29 04:59:35;;;;;;;31.15;18.45;;;;;;;13.41;66.52;102366.31;5011898;28;20030;-76
2022/01/29 05:02:00;;;;;;;30.83;18.25;;;;;;;13.04;67.26;102373.13;5000785;28;20042;-75
2022/01/29 05:04:26;;;;;;;33.05;16.25;;;;;;;13.09;67.07;102362.53;4973004;28;20126;-76
2022/01/29 05:06:51;;;;;;;30.85;18.77;;;;;;;13.45;65.85;102359.47;4991987;28;20034;-75
2022/01/29 05:09:16;;;;;;;35.28;19.90;;;;;;;13.23;66.36;102353.44;4984344;28;20073;-76
2022/01/29 05:11:45;;;;;;;26.85;17.40;;;;;;;13.17;66.60;102360.50;4976214;28;20395;-76
2022/01/29 05:14:19;;;;;;;32.85;17.80;;;;;;;12.80;67.92;102341.25;4975674;28;20519;-77
2022/01/29 05:26:50;;;;;;;28.70;17.50;;;;;;;12.86;68.61;102351.25;4995213;28;20125;-75
2022/01/29 05:27:49;;;;;;;31.73;17.10;;;;;;;12.76;68.87;102330.06;4995113;28;20069;-74
2022/01/29 05:30:14;;;;;;;26.75;16.10;;;;;;;13.31;66.91;102331.63;4994623;28;20125;-75
2022/01/29 05:32:40;;;;;;;22.98;14.18;;;;;;;12.87;68.32;102323.25;4995658;28;20049;-77
2022/01/29 05:35:05;;;;;;;31.23;16.00;;;;;;;13.63;65.48;102324.56;4994928;28;20065;-76
2022/01/29 05:37:31;;;;;;;34.08;15.88;;;;;;;13.15;66.95;102316.69;4995179;28;20081;-76
2022/01/29 05:39:56;;;;;;;19.80;9.82;;;;;;;12.83;67.99;102312.03;4994993;28;20129;-74
2022/01/29 05:42:21;;;;;;;20.40;11.70;;;;;;;12.66;68.76;102328.81;4995191;28;20494;-75
2022/01/29 05:44:47;;;;;;;29.30;14.50;;;;;;;13.34;66.65;102333.09;4995354;28;20030;-74
2022/01/29 05:47:12;;;;;;;23.63;14.55;;;;;;;13.59;65.54;102318.78;5004458;28;20044;-75
2022/01/29 05:49:37;;;;;;;26.83;14.20;;;;;;;13.53;66.14;102318.75;4995931;28;20108;-75
2022/01/29 05:52:03;;;;;;;20.73;11.98;;;;;;;13.05;67.86;102320.84;5014319;28;20037;-76
2022/01/29 05:54:28;;;;;;;20.50;12.10;;;;;;;12.83;67.94;102332.78;5014078;28;20168;-74
2022/01/29 05:56:54;;;;;;;29.45;15.60;;;;;;;13.79;64.99;102314.19;4997409;28;20494;-75
2022/01/29 05:59:19;;;;;;;26.45;14.02;;;;;;;13.62;65.52;102298.63;5014188;28;20030;-76
2022/01/29 06:01:45;;;;;;;30.25;13.43;;;;;;;13.48;66.11;102292.41;5014219;28;20495;-76
2022/01/29 06:04:10;;;;;;;27.27;13.98;;;;;;;13.53;65.97;102299.84;5014194;28;20033;-75
2022/01/29 06:06:35;;;;;;;23.00;13.40;;;;;;;13.52;66.12;102282.00;5014417;28;20029;-76
2022/01/29 06:09:04;;;;;;;23.63;13.77;;;;;;;13.55;66.37;102286.97;5005255;28;20504;-76
2022/01/29 06:11:31;;;;;;;14.57;9.63;;;;;;;13.61;65.80;102286.13;4995176;28;20035;-77
2022/01/29 06:13:56;;;;;;;19.27;11.25;;;;;;;13.18;67.52;102291.16;4994468;28;20038;-76
2022/01/29 06:16:21;;;;;;;19.10;11.90;;;;;;;13.62;66.18;102294.03;4996088;28;20049;-77
2022/01/29 06:18:47;;;;;;;32.58;13.50;;;;;;;13.72;65.56;102277.41;5012441;28;20812;-75
2022/01/29 06:21:14;;;;;;;24.05;13.23;;;;;;;13.48;67.08;102270.81;5004017;28;20022;-76
2022/01/29 06:23:40;;;;;;;24.20;14.20;;;;;;;13.66;66.03;102270.97;4994081;28;20029;-76
2022/01/29 06:26:09;;;;;;;30.55;16.63;;;;;;;13.32;67.50;102273.91;4993620;28;20038;-77
2022/01/29 06:28:35;;;;;;;27.70;13.73;;;;;;;14.08;65.20;102267.75;4993221;28;20043;-77
2022/01/29 06:31:03;;;;;;;29.48;14.60;;;;;;;14.08;64.84;102275.00;4992931;28;20132;-77
2022/01/29 06:33:29;;;;;;;20.73;11.65;;;;;;;13.20;67.91;102289.06;4993205;28;20385;-75
2022/01/29 06:35:55;;;;;;;16.48;9.90;;;;;;;12.96;68.57;102266.19;4992582;28;20038;-76
2022/01/29 06:38:20;;;;;;;21.98;13.52;;;;;;;13.23;67.69;102266.25;4993442;28;20512;-77
2022/01/29 06:40:46;;;;;;;29.92;15.02;;;;;;;13.50;66.86;102260.63;4993330;28;20049;-75
2022/01/29 06:43:12;;;;;;;30.77;13.63;;;;;;;13.82;65.68;102259.72;4993639;28;20034;-76
2022/01/29 06:45:39;;;;;;;29.40;12.55;;;;;;;13.61;66.26;102261.84;4993807;28;20038;-76
2022/01/29 06:48:05;;;;;;;19.27;12.10;;;;;;;13.83;65.60;102249.75;5010338;28;20030;-77
2022/01/29 06:50:31;;;;;;;14.80;11.65;;;;;;;13.15;68.06;102261.84;5014004;28;20532;-76
2022/01/29 06:52:57;;;;;;;25.23;12.75;;;;;;;13.71;65.98;102248.72;5013221;28;20057;-76
2022/01/29 06:55:23;;;;;;;21.83;13.23;;;;;;;14.10;64.40;102254.84;5013347;28;20038;-76
2022/01/29 06:57:49;;;;;;;18.20;10.80;;;;;;;13.75;65.22;102252.66;5013032;28;20076;-76
2022/01/29 07:00:14;;;;;;;17.55;11.27;;;;;;;13.67;66.18;102240.22;4995635;28;20018;-77
2022/01/29 07:02:40;;;;;;;24.92;14.00;;;;;;;13.82;65.10;102242.66;5013659;28;20129;-76
2022/01/29 07:05:08;;;;;;;21.85;11.60;;;;;;;13.57;66.56;102245.22;5012614;28;20072;-77
2022/01/29 07:07:33;;;;;;;16.17;9.13;;;;;;;13.47;66.31;102250.22;5012753;28;20122;-76
2022/01/29 07:09:59;;;;;;;18.38;10.60;;;;;;;13.57;66.34;102247.09;4996142;28;20538;-74
2022/01/29 07:12:25;;;;;;;26.63;11.52;;;;;;;14.20;63.89;102243.56;4993260;28;20046;-76
2022/01/29 07:14:50;;;;;;;18.30;10.00;;;;;;;13.38;66.70;102234.44;4993820;28;20030;-77
2022/01/29 07:17:18;;;;;;;24.63;11.95;;;;;;;13.43;66.82;102237.34;4993214;28;20030;-77
2022/01/29 07:19:45;;;;;;;15.73;10.02;;;;;;;13.34;67.22;102247.53;4993026;28;20035;-77
2022/01/29 07:22:10;;;;;;;18.50;9.73;;;;;;;14.14;64.52;102249.84;4993476;28;20049;-76
2022/01/29 07:24:37;;;;;;;16.95;9.75;;;;;;;13.40;66.63;102251.28;4993197;28;20042;-76
2022/01/29 07:27:03;;;;;;;16.70;9.73;;;;;;;13.94;64.92;102240.97;4993366;28;20117;-75
2022/01/29 07:29:29;;;;;;;14.82;8.07;;;;;;;13.28;67.39;102242.13;4992833;28;20054;-78
2022/01/29 07:31:56;;;;;;;20.50;9.93;;;;;;;13.48;66.53;102251.06;4992788;28;20108;-75
2022/01/29 07:34:22;;;;;;;12.55;9.05;;;;;;;13.36;67.18;102244.63;4993074;28;20038;-75
2022/01/29 07:36:47;;;;;;;21.83;10.82;;;;;;;14.31;64.01;102240.22;4991927;28;20038;-76
2022/01/29 07:39:13;;;;;;;17.98;10.65;;;;;;;14.07;64.71;102232.81;4993253;28;20045;-76
2022/01/29 07:41:38;;;;;;;22.02;11.40;;;;;;;13.73;65.55;102252.88;4993856;28;20042;-78
2022/01/29 07:44:04;;;;;;;15.73;8.38;;;;;;;13.28;67.42;102240.28;4993284;28;20097;-74
2022/01/29 07:46:29;;;;;;;29.33;10.77;;;;;;;13.84;66.14;102233.31;4996851;28;20358;-75
2022/01/29 07:48:54;;;;;;;15.35;9.02;;;;;;;13.69;66.41;102232.72;5012370;28;20441;-75
2022/01/29 07:51:21;;;;;;;18.00;10.40;;;;;;;13.57;66.67;102239.81;5009964;28;20112;-75
2022/01/29 07:53:46;;;;;;;16.45;9.85;;;;;;;14.26;64.30;102228.34;5011598;28;20436;-75
2022/01/29 07:56:11;;;;;;;17.15;10.18;;;;;;;13.33;67.80;102216.16;5012833;28;20109;-75
2022/01/29 07:58:37;;;;;;;16.65;8.25;;;;;;;13.46;67.36;102228.84;5009321;28;20568;-76
2022/01/29 08:01:03;;;;;;;15.50;9.55;;;;;;;13.34;67.94;102227.81;4992266;28;20429;-75
2022/01/29 08:03:28;;;;;;;17.35;11.20;;;;;;;13.45;67.75;102213.66;4992567;28;20065;-76
2022/01/29 08:05:54;;;;;;;19.35;12.60;;;;;;;14.19;65.46;102217.56;4992573;28;20030;-75
2022/01/29 08:08:20;;;;;;;15.05;10.63;;;;;;;14.01;65.20;102212.84;4992778;28;20042;-75
2022/01/29 08:10:45;;;;;;;19.67;11.65;;;;;;;13.57;67.41;102215.50;5009801;28;20065;-75
2022/01/29 08:13:10;;;;;;;18.25;13.05;;;;;;;14.29;64.98;102203.63;5006860;28;20053;-76
2022/01/29 08:15:36;;;;;;;28.30;13.43;;;;;;;13.85;66.00;102218.78;4992792;28;20041;-76
2022/01/29 08:18:02;;;;;;;23.42;12.82;;;;;;;13.54;67.61;102201.59;4992802;28;20050;-77
2022/01/29 08:20:27;;;;;;;17.00;8.75;;;;;;;13.25;69.40;102204.78;4992565;28;20034;-74
2022/01/29 08:22:53;;;;;;;23.60;13.77;;;;;;;13.40;68.52;102205.38;4992382;28;20027;-76
2022/01/29 08:25:18;;;;;;;23.08;10.25;;;;;;;13.05;69.89;102202.91;4975155;28;20129;-75
2022/01/29 08:27:44;;;;;;;20.60;12.98;;;;;;;13.29;69.76;102198.72;4992486;28;20030;-75
2022/01/29 08:30:09;;;;;;;23.98;13.73;;;;;;;13.47;69.03;102195.38;4991769;28;20121;-75
2022/01/29 08:32:41;;;;;;;16.58;10.02;;;;;;;13.23;69.68;102180.66;4993132;28;20053;-75
2022/01/29 08:35:12;;;;;;;18.55;13.35;;;;;;;13.53;68.46;102189.13;4992018;28;20093;-73
2022/01/29 08:37:38;;;;;;;17.25;10.52;;;;;;;13.00;70.32;102196.44;4992294;28;20033;-75
2022/01/29 08:40:04;;;;;;;26.52;13.40;;;;;;;13.68;68.44;102173.53;4992706;28;20482;-76
2022/01/29 08:42:30;;;;;;;30.02;12.18;;;;;;;13.68;68.12;102173.53;4993873;28;20049;-76
2022/01/29 08:44:57;;;;;;;22.23;12.93;;;;;;;13.86;67.73;102184.44;4996926;28;20034;-76
2022/01/29 08:47:22;;;;;;;14.45;11.25;;;;;;;13.71;67.62;102175.78;4985389;28;20039;-75
2022/01/29 08:49:47;;;;;;;15.50;9.82;;;;;;;13.50;69.13;102186.88;4976750;28;20576;-75
2022/01/29 08:52:13;;;;;;;11.45;9.35;;;;;;;13.57;68.14;102172.28;4976515;28;20031;-74
2022/01/29 08:54:38;;;;;;;14.52;10.32;;;;;;;13.68;68.09;102177.03;4976984;28;20070;-76
2022/01/29 08:57:04;;;;;;;20.17;11.60;;;;;;;14.54;65.20;102166.66;4976558;28;20035;-74
2022/01/29 08:59:29;;;;;;;12.90;10.38;;;;;;;14.10;66.60;102170.22;4977465;28;20185;-74
2022/01/29 09:01:54;;;;;;;13.20;8.80;;;;;;;13.28;68.95;102180.03;4976928;28;20050;-75
2022/01/29 09:04:20;;;;;;;14.18;9.80;;;;;;;13.66;68.21;102159.41;4976603;28;20588;-75
2022/01/29 09:06:45;;;;;;;10.60;9.13;;;;;;;13.61;68.74;102167.28;5006934;28;20037;-75
2022/01/29 09:09:11;;;;;;;13.55;9.80;;;;;;;14.19;66.56;102155.38;5005415;28;20109;-75
2022/01/29 09:11:36;;;;;;;16.17;9.27;;;;;;;13.98;67.13;102153.00;4996867;28;20037;-74
2022/01/29 09:14:02;;;;;;;22.70;9.50;;;;;;;13.64;68.57;102153.38;4995708;28;20479;-75
2022/01/29 09:16:28;;;;;;;15.40;8.43;;;;;;;13.93;67.72;102147.44;4995817;28;20038;-74
2022/01/29 09:18:53;;;;;;;17.15;9.73;;;;;;;14.00;67.42;102145.50;4995940;28;20035;-74
2022/01/29 09:21:18;;;;;;;10.98;7.43;;;;;;;13.78;68.00;102138.75;4995793;28;20026;-75
2022/01/29 09:23:44;;;;;;;13.38;7.63;;;;;;;14.36;65.77;102134.94;4996347;28;20027;-76
2022/01/29 09:26:09;;;;;;;17.10;7.50;;;;;;;13.75;67.36;102133.78;4995753;28;20042;-76
2022/01/29 09:28:35;;;;;;;10.23;6.32;;;;;;;13.94;66.47;102108.53;4995556;28;20062;-75
2022/01/29 09:31:02;;;;;;;11.93;7.00;;;;;;;13.73;68.45;102125.91;4995364;28;20069;-76
2022/01/29 09:33:27;;;;;;;11.82;5.63;;;;;;;13.52;68.47;102126.19;4994439;28;20042;-75
2022/01/29 09:35:53;;;;;;;17.60;8.05;;;;;;;13.92;67.52;102111.47;4994792;28;20086;-75
2022/01/29 09:38:18;;;;;;;11.95;6.90;;;;;;;14.36;65.66;102105.19;4995127;28;20037;-75
2022/01/29 09:40:44;;;;;;;12.68;7.43;;;;;;;14.51;64.83;102097.56;4994827;28;20046;-75
2022/01/29 09:43:10;;;;;;;12.32;6.63;;;;;;;14.06;66.55;102104.94;4993609;28;20083;-74
2022/01/29 09:45:37;;;;;;;10.15;6.10;;;;;;;13.95;67.34;102105.63;4995185;28;20042;-75
2022/01/29 09:48:04;;;;;;;7.03;5.38;;;;;;;13.92;67.53;102097.94;4994640;28;20042;-72
2022/01/29 09:50:38;;;;;;;10.65;6.10;;;;;;;13.99;66.61;102114.94;4991394;28;20026;-73
2022/01/29 09:53:05;;;;;;;12.25;6.82;;;;;;;14.33;65.62;102091.28;4993067;28;20042;-73
2022/01/29 09:55:31;;;;;;;11.55;6.13;;;;;;;14.45;65.42;102084.09;4993039;28;20034;-73
2022/01/29 09:57:57;;;;;;;8.50;5.50;;;;;;;14.07;66.38;102081.44;4993271;28;20034;-71
2022/01/29 10:00:23;;;;;;;6.70;5.40;;;;;;;13.95;66.64;102078.59;4992590;28;20035;-72
2022/01/29 10:03:10;;;;;;;11.60;5.95;;;;;;;14.94;63.57;102062.41;4994526;28;20726;-73
2022/01/29 10:05:41;;;;;;;10.55;5.15;;;;;;;13.90;66.03;102064.06;4989689;28;20054;-72
2022/01/29 10:08:07;;;;;;;10.57;4.63;;;;;;;14.27;65.46;102055.09;4990401;28;20438;-74
2022/01/29 10:10:48;;;;;;;9.00;5.75;;;;;;;14.86;63.12;102041.88;4989110;28;20122;-71
2022/01/29 10:13:30;;;;;;;10.25;4.25;;;;;;;14.37;64.37;102060.06;4991284;28;20193;-73
2022/01/29 10:16:12;;;;;;;10.23;3.95;;;;;;;14.65;63.72;102060.41;4994320;28;20034;-73
2022/01/29 10:18:39;;;;;;;10.95;4.18;;;;;;;15.01;62.16;102041.53;4989367;28;20057;-72
2022/01/29 10:21:22;;;;;;;9.15;4.00;;;;;;;14.74;63.17;102043.66;4989463;28;20025;-76
2022/01/29 10:23:48;;;;;;;7.13;3.88;;;;;;;14.35;65.00;102057.56;4992089;28;20052;-74
2022/01/29 10:26:40;;;;;;;9.60;3.97;;;;;;;14.62;63.93;102040.03;4991290;28;20048;-74
2022/01/29 10:29:15;;;;;;;7.53;3.55;;;;;;;13.80;66.13;102053.75;4993433;28;20045;-74
2022/01/29 10:31:49;;;;;;;10.25;4.32;;;;;;;14.69;63.67;102039.97;4992593;28;20564;-75
2022/01/29 10:34:23;;;;;;;9.15;3.00;;;;;;;14.62;63.91;102044.66;4989357;28;20026;-75
2022/01/29 10:37:26;;;;;;;5.03;3.35;;;;;;;13.97;65.81;102057.56;4992863;28;20041;-75
2022/01/29 10:39:56;;;;;;;14.13;3.17;;;;;;;14.19;65.02;102041.03;4993984;28;20073;-74
2022/01/29 10:42:37;;;;;;;10.70;3.95;;;;;;;14.36;64.30;102037.59;4986005;28;20121;-73
2022/01/29 10:45:06;;;;;;;5.22;2.55;;;;;;;14.42;64.39;102023.19;4989142;28;20178;-74
2022/01/29 10:47:53;;;;;;;10.52;2.78;;;;;;;14.40;64.03;102025.28;4991070;28;20430;-74
2022/01/29 10:50:19;;;;;;;10.52;2.42;;;;;;;14.50;63.90;102020.19;4990784;28;20038;-75
2022/01/29 10:52:44;;;;;;;3.22;1.65;;;;;;;14.59;63.23;102015.31;4988093;28;20500;-75
2022/01/29 10:55:09;;;;;;;6.82;2.30;;;;;;;14.43;63.98;102000.47;4988450;28;20031;-74
2022/01/29 10:57:38;;;;;;;4.25;1.48;;;;;;;14.17;64.01;102006.06;4988524;28;20096;-75
2022/01/29 11:00:06;;;;;;;3.13;1.27;;;;;;;14.81;62.26;102011.16;4989244;28;20045;-72
2022/01/29 11:02:32;;;;;;;6.15;2.08;;;;;;;15.14;61.57;102019.72;4988052;28;20023;-73
2022/01/29 11:05:01;;;;;;;4.35;1.60;;;;;;;15.35;61.04;102007.59;4988623;28;20045;-73
2022/01/29 11:07:28;;;;;;;9.82;3.00;;;;;;;16.28;58.32;101998.72;4989312;28;20122;-74
2022/01/29 11:09:54;;;;;;;11.60;1.85;;;;;;;15.49;59.76;102006.38;4991354;28;20402;-73
2022/01/29 11:12:25;;;;;;;4.88;1.35;;;;;;;15.63;59.78;102019.53;4989569;28;20038;-74
2022/01/29 11:14:52;;;;;;;;;;;;;;;16.06;57.79;102008.44;4992642;28;20038;-75
2022/01/29 11:17:18;;;;;;;8.90;2.05;;;;;;;15.10;61.03;101999.56;4992191;28;19941;-76
2022/01/29 11:19:44;;;;;;;5.20;2.13;;;;;;;14.96;61.23;102015.13;4994943;28;20053;-72
2022/01/29 11:22:11;;;;;;;10.50;1.33;;;;;;;14.70;61.64;101991.06;4994180;28;20129;-72
2022/01/29 11:24:39;;;;;;;5.78;1.60;;;;;;;14.99;60.83;101984.09;4992437;28;20413;-75